📊 Raw Sensor Data

Showing records 32351 to 32375 of 84,690 total

ID Distance (ft) Battery V Battery A Int Temp (°F) Int Humid (%) Ext Temp (°F) Solar V RSSI SNR Time Stamp
52352 15.2 4.02 0 91 43 88 5.10 -74 7 09/18/2025 12:30 PM
52351 15.2 4.02 0 91 43 88 5.10 -73 8 09/18/2025 12:15 PM
52350 15.1 4.02 0 89 43 85 5.10 -72 8 09/18/2025 12:00 PM
52349 15.1 4.02 0 89 43 85 5.10 -73 8 09/18/2025 11:45 AM
52348 15.1 4.02 0 87 43 84 5.10 -74 8 09/18/2025 11:30 AM
52347 15.1 4.02 0 86 42 82 5.10 -73 8 09/18/2025 11:15 AM
52346 13.9 4.02 0 84 42 82 5.10 -72 8 09/18/2025 11:00 AM
52345 13.9 4.04 0 83 42 82 5.10 -72 8 09/18/2025 10:45 AM
52344 -- 4.15 0 81 42 77 5.10 -72 8 09/18/2025 10:31 AM
52343 13.8 4.02 5 80 41 79 5.10 -72 8 09/18/2025 10:15 AM
52342 14.0 4.02 0 77 42 75 5.10 -71 7 09/18/2025 10:00 AM
52341 13.9 4.02 0 76 42 75 5.10 -72 8 09/18/2025 09:45 AM
52340 15.0 4.14 0 73 42 73 5.10 -71 7 09/18/2025 09:30 AM
52339 -- 4.15 0 72 42 71 5.10 -71 9 09/18/2025 09:15 AM
52338 14.0 4.03 0 71 41 71 5.10 -71 8 09/18/2025 09:00 AM
52337 15.1 4.09 61 69 41 69 4.60 -71 8 09/18/2025 08:45 AM
52336 14.9 4.07 38 68 41 68 4.50 -70 8 09/18/2025 08:30 AM
52335 14.9 4.06 25 66 42 67 4.50 -70 8 09/18/2025 08:15 AM
52334 14.9 4.03 -7 62 43 63 4.50 -71 8 09/18/2025 07:45 AM
52333 14.9 3.94 0 60 43 62 4.50 -71 8 09/18/2025 07:30 AM
52332 14.9 3.93 -6 60 44 60 4.50 -70 8 09/18/2025 07:15 AM
52331 14.9 3.93 -10 60 44 62 4.30 -71 8 09/18/2025 07:00 AM
52330 14.9 3.94 -5 60 44 61 0.80 -71 8 09/18/2025 06:45 AM
52329 14.9 3.99 -5 60 44 62 0.00 -70 8 09/18/2025 06:30 AM
52328 13.6 4.00 -5 59 44 62 0.00 -70 8 09/18/2025 06:15 AM